Terminal Aerodrome Forecast
Issued by NWS

Home | Current Version | Previous Version | Text Only | Print | Product List | Glossary On
Versions: 1 2 3 4 5 6 7 8 9 10 11 12 13 14 15 16 17 18 19 20 21 22 23 24 25 26 27 28 29
000
FTUS45 KGJT 241828 AAA
TAFTEX
TAF AMD
KTEX 241828Z 2418/2518 17008KT P6SM VCTS SCT060CB BKN100
      TEMPO 2420/2422 VRB15G25KT 5SM TSRA FEW040 BKN060CB
     FM242200 16009KT P6SM VCTS SCT060CB BKN090
     FM250300 13006KT P6SM VCSH SCT060 BKN100
     FM250600 14003KT P6SM BKN120=

USA.gov is the U.S. government's official web portal to all federal, state and local government web resources and services.